Terminal Aerodrome Forecast
Issued by NWS

Home | Current Version | Previous Version | Text Only | Print | Product List | Glossary On
Versions: 1 2 3 4 5 6 7 8 9 10 11 12 13
000
FTUS45 KREV 190500
TAFTRK
TAF
KTRK 190520Z 1906/2006 VRB03KT P6SM SCT180
     FM191000 00000KT P6SM BCFG SKC
     FM191500 VRB04KT P6SM FEW070 SCT180
     FM192000 24012G14KT P6SM SCT180
     FM200200 VRB03KT P6SM SCT180
      AMD NOT SKED 1906/1912=

USA.gov is the U.S. government's official web portal to all federal, state and local government web resources and services.